Time;durP1;ratioP1;P1;durP2;ratioP2;P2;SDS_P1;SDS_P2;PMS_P1;PMS_P2;Temp;Humidity;BMP_temperature;BMP_pressure;BME280_temperature;BME280_humidity;BME280_pressure;Samples;Min_cycle;Max_cycle;Signal;HPM_P1;HPM_P2
2023/03/25 00:00:16;;;;;;;;;;;18.00;87.10;;;;;;5118099;28;19908;-49
2023/03/25 00:02:46;;;;;;;;;;;18.00;87.10;;;;;;5117134;28;19912;-49
2023/03/25 00:05:13;;;;;;;;;;;18.00;87.10;;;;;;5117651;28;20346;-51
2023/03/25 00:07:40;;;;;;;;;;;18.00;87.10;;;;;;5117777;28;19911;-47
2023/03/25 00:10:06;;;;;;;;;;;18.00;87.20;;;;;;5117846;28;19929;-48
2023/03/25 00:12:31;;;;;;;;;;;18.00;87.20;;;;;;5116432;28;19912;-52
2023/03/25 00:14:57;;;;;;;;;;;18.00;87.20;;;;;;5117622;28;19911;-48
2023/03/25 00:17:25;;;;;;;;;;;18.00;87.30;;;;;;5117505;28;19912;-49
2023/03/25 00:19:50;;;;;;;;;;;18.00;87.30;;;;;;5117119;28;19915;-50
2023/03/25 00:22:16;;;;;;;;;;;18.00;87.30;;;;;;5116920;28;19911;-46
2023/03/25 00:24:42;;;;;;;;;;;17.90;87.40;;;;;;5117240;28;19908;-51
2023/03/25 00:27:07;;;;;;;;;;;17.90;87.40;;;;;;5117160;28;19981;-49
2023/03/25 00:29:33;;;;;;;;;;;17.90;87.40;;;;;;5117445;28;19933;-52
2023/03/25 00:31:58;;;;;;;;;;;17.90;87.40;;;;;;5116442;28;19951;-51
2023/03/25 00:34:24;;;;;;;;;;;17.90;87.40;;;;;;5117292;28;19912;-49
2023/03/25 00:36:49;;;;;;;;;;;17.90;87.60;;;;;;5117644;28;19911;-51
2023/03/25 00:39:15;;;;;;;;;;;17.90;87.60;;;;;;5117307;28;19915;-49
2023/03/25 00:41:42;;;;;;;;;;;17.90;87.60;;;;;;5115738;28;20264;-51
2023/03/25 00:44:08;;;;;;;;;;;17.90;87.60;;;;;;5117252;28;19958;-48
2023/03/25 00:46:34;;;;;;;;;;;17.80;87.50;;;;;;5117068;28;19907;-52
2023/03/25 00:48:59;;;;;;;;;;;17.80;87.60;;;;;;5116828;28;19907;-48
2023/03/25 00:51:30;;;;;;;;;;;17.80;87.50;;;;;;5115651;28;19918;-50
2023/03/25 00:53:59;;;;;;;;;;;17.80;87.50;;;;;;5116643;28;19911;-52
2023/03/25 00:56:24;;;;;;;;;;;17.80;87.60;;;;;;5116767;28;19912;-51
2023/03/25 00:58:50;;;;;;;;;;;17.80;87.60;;;;;;5116548;28;19907;-51
2023/03/25 01:01:17;;;;;;;;;;;17.80;87.70;;;;;;5115975;28;20259;-52
2023/03/25 01:03:43;;;;;;;;;;;17.80;87.60;;;;;;5115619;28;19912;-49
2023/03/25 01:06:10;;;;;;;;;;;17.80;87.60;;;;;;5116565;28;20414;-47
2023/03/25 01:08:36;;;;;;;;;;;17.80;87.60;;;;;;5116414;28;19915;-46
2023/03/25 01:11:01;;;;;;;;;;;17.80;87.60;;;;;;5116751;28;20364;-49
2023/03/25 01:13:27;;;;;;;;;;;17.80;87.70;;;;;;5115678;28;19981;-48
2023/03/25 01:15:52;;;;;;;;;;;17.80;87.70;;;;;;5116415;28;19919;-49
2023/03/25 01:18:18;;;;;;;;;;;17.80;87.70;;;;;;5116681;28;20427;-48
2023/03/25 01:20:43;;;;;;;;;;;17.80;87.80;;;;;;5097058;28;19958;-48
2023/03/25 01:23:09;;;;;;;;;;;17.80;87.70;;;;;;5116470;28;20354;-47
2023/03/25 01:25:35;;;;;;;;;;;17.80;87.70;;;;;;5116501;28;19912;-52
2023/03/25 01:28:01;;;;;;;;;;;17.80;87.70;;;;;;5116687;28;19908;-49
2023/03/25 01:30:26;;;;;;;;;;;17.80;87.70;;;;;;5115564;28;19918;-47
2023/03/25 01:32:52;;;;;;;;;;;17.80;87.70;;;;;;5116319;28;20018;-47
2023/03/25 01:35:17;;;;;;;;;;;17.70;87.80;;;;;;5116217;28;19915;-49
2023/03/25 01:37:43;;;;;;;;;;;17.70;87.90;;;;;;5116198;28;19919;-50
2023/03/25 01:40:15;;;;;;;;;;;17.70;87.90;;;;;;5116168;28;19908;-51
2023/03/25 01:42:40;;;;;;;;;;;17.70;87.90;;;;;;5115135;28;19979;-47
2023/03/25 01:45:19;;;;;;;;;;;17.70;88.00;;;;;;5115813;28;19908;-49
2023/03/25 01:47:46;;;;;;;;;;;17.70;88.00;;;;;;5116089;28;20448;-55
2023/03/25 01:50:13;;;;;;;;;;;17.70;88.00;;;;;;5115672;28;19930;-49
2023/03/25 01:52:40;;;;;;;;;;;17.70;88.10;;;;;;5114582;28;19959;-50
2023/03/25 01:55:06;;;;;;;;;;;17.70;88.10;;;;;;5115786;28;19965;-50
2023/03/25 01:57:32;;;;;;;;;;;17.70;88.10;;;;;;5115373;28;19916;-51
2023/03/25 01:59:57;;;;;;;;;;;17.70;88.10;;;;;;5115457;28;20459;-51
2023/03/25 02:02:35;;;;;;;;;;;17.70;88.10;;;;;;5113157;28;19912;-50
2023/03/25 02:05:21;;;;;;;;;;;17.70;88.10;;;;;;5115002;28;19946;-52
2023/03/25 02:07:47;;;;;;;;;;;17.70;88.20;;;;;;5114728;28;19916;-50
2023/03/25 02:10:13;;;;;;;;;;;17.70;88.10;;;;;;5115622;28;19907;-49
2023/03/25 02:12:40;;;;;;;;;;;17.70;88.10;;;;;;5114580;28;20332;-52
2023/03/25 02:15:06;;;;;;;;;;;17.70;88.10;;;;;;5115109;28;19919;-51
2023/03/25 02:17:50;;;;;;;;;;;17.70;88.00;;;;;;5115440;28;20393;-50
2023/03/25 02:20:18;;;;;;;;;;;17.70;88.10;;;;;;5114130;28;20320;-50
2023/03/25 02:23:13;;;;;;;;;;;17.70;88.10;;;;;;5115361;28;19912;-51
2023/03/25 02:25:54;;;;;;;;;;;17.60;88.20;;;;;;5093448;28;20270;-51
2023/03/25 02:28:35;;;;;;;;;;;17.60;88.20;;;;;;5114888;28;19908;-49
2023/03/25 02:31:21;;;;;;;;;;;17.60;88.20;;;;;;5114088;28;19911;-48
2023/03/25 02:33:52;;;;;;;;;;;17.60;88.10;;;;;;5113472;28;20275;-51
2023/03/25 02:36:40;;;;;;;;;;;17.60;88.20;;;;;;5115391;28;19919;-48
2023/03/25 02:39:24;;;;;;;;;;;17.60;88.30;;;;;;5115147;28;19912;-49
2023/03/25 02:41:57;;;;;;;;;;;17.60;88.30;;;;;;5113508;28;19926;-50
2023/03/25 02:44:28;;;;;;;;;;;17.60;88.30;;;;;;5096085;28;20368;-51
2023/03/25 02:46:56;;;;;;;;;;;17.60;88.30;;;;;;5114764;28;19908;-52
2023/03/25 02:49:33;;;;;;;;;;;17.60;88.40;;;;;;5114726;28;19914;-51
2023/03/25 02:52:00;;;;;;;;;;;17.60;88.40;;;;;;5113711;28;19916;-47
2023/03/25 02:54:28;;;;;;;;;;;17.60;88.40;;;;;;5114486;28;19919;-50
2023/03/25 02:56:56;;;;;;;;;;;17.60;88.40;;;;;;5114919;28;19957;-51
2023/03/25 02:59:22;;;;;;;;;;;17.60;88.40;;;;;;5114781;28;19915;-48
2023/03/25 03:01:49;;;;;;;;;;;17.60;88.40;;;;;;5113155;28;19912;-50
2023/03/25 03:04:15;;;;;;;;;;;17.50;88.40;;;;;;5114756;28;19930;-47
2023/03/25 03:06:40;;;;;;;;;;;17.50;88.40;;;;;;5114705;28;20342;-49
2023/03/25 03:09:24;;;;;;;;;;;17.50;88.40;;;;;;5113773;28;19919;-48
2023/03/25 03:12:08;;;;;;;;;;;17.50;88.30;;;;;;5114658;28;19907;-48
2023/03/25 03:15:03;;;;;;;;;;;17.50;88.40;;;;;;5114239;28;19992;-51
2023/03/25 03:17:28;;;;;;;;;;;17.50;88.40;;;;;;5100808;28;19980;-48
2023/03/25 03:20:07;;;;;;;;;;;17.50;88.40;;;;;;5110787;28;20054;-50
2023/03/25 03:22:41;;;;;;;;;;;17.50;88.40;;;;;;5111424;28;20362;-51
2023/03/25 03:25:21;;;;;;;;;;;17.50;88.40;;;;;;5114422;28;19908;-49
2023/03/25 03:28:18;;;;;;;;;;;17.50;88.40;;;;;;5118415;28;20259;-49
2023/03/25 03:30:47;;;;;;;;;;;17.50;88.40;;;;;;5096900;28;19912;-50
2023/03/25 03:33:24;;;;;;;;;;;17.50;88.40;;;;;;5118572;28;19914;-49
2023/03/25 03:35:56;;;;;;;;;;;17.50;88.40;;;;;;5118336;28;19911;-52
2023/03/25 03:38:23;;;;;;;;;;;17.50;88.50;;;;;;5118705;28;19907;-49
2023/03/25 03:40:50;;;;;;;;;;;17.50;88.40;;;;;;5099048;28;20488;-52
2023/03/25 03:43:22;;;;;;;;;;;17.50;88.50;;;;;;5118167;28;19953;-51
2023/03/25 03:45:50;;;;;;;;;;;17.50;88.50;;;;;;5118819;28;19915;-48
2023/03/25 03:48:22;;;;;;;;;;;17.50;88.50;;;;;;5118544;28;19915;-47
2023/03/25 03:50:51;;;;;;;;;;;17.50;88.60;;;;;;5117396;28;20010;-53
2023/03/25 03:53:28;;;;;;;;;;;17.50;88.70;;;;;;5118182;28;19915;-53
2023/03/25 03:56:05;;;;;;;;;;;17.50;88.70;;;;;;5118279;28;19912;-51
2023/03/25 03:58:36;;;;;;;;;;;17.50;88.60;;;;;;5118162;28;20314;-47
2023/03/25 04:01:04;;;;;;;;;;;17.40;88.60;;;;;;5116961;28;19912;-52
2023/03/25 04:03:37;;;;;;;;;;;17.50;88.70;;;;;;5118122;28;20394;-52
2023/03/25 04:06:08;;;;;;;;;;;17.40;88.60;;;;;;5117887;28;19908;-49
2023/03/25 04:08:37;;;;;;;;;;;17.50;88.70;;;;;;5118045;28;19907;-49
2023/03/25 04:11:11;;;;;;;;;;;17.40;88.80;;;;;;5117025;28;19947;-53
2023/03/25 04:13:39;;;;;;;;;;;17.40;88.70;;;;;;5117701;28;19912;-49
2023/03/25 04:16:05;;;;;;;;;;;17.40;88.80;;;;;;5117857;28;19998;-47
2023/03/25 04:18:32;;;;;;;;;;;17.40;88.80;;;;;;5116148;28;19919;-52
2023/03/25 04:20:59;;;;;;;;;;;17.40;88.80;;;;;;5117542;28;19915;-50
2023/03/25 04:23:28;;;;;;;;;;;17.40;88.70;;;;;;5117665;28;19912;-47
2023/03/25 04:25:54;;;;;;;;;;;17.40;88.70;;;;;;5117312;28;20366;-49
2023/03/25 04:28:20;;;;;;;;;;;17.40;88.80;;;;;;5117477;28;19921;-48
2023/03/25 04:30:47;;;;;;;;;;;17.40;88.70;;;;;;5117310;28;19960;-53
2023/03/25 04:33:13;;;;;;;;;;;17.40;88.70;;;;;;5117022;28;20333;-50
2023/03/25 04:35:39;;;;;;;;;;;17.40;88.80;;;;;;5117325;28;19916;-48
2023/03/25 04:38:05;;;;;;;;;;;17.40;88.80;;;;;;5116971;28;19907;-50
2023/03/25 04:40:31;;;;;;;;;;;17.40;88.80;;;;;;5097985;28;19927;-50
2023/03/25 04:42:57;;;;;;;;;;;17.40;88.90;;;;;;5116596;28;19918;-51
2023/03/25 04:45:24;;;;;;;;;;;17.40;88.80;;;;;;5116995;28;20002;-51
2023/03/25 04:47:52;;;;;;;;;;;17.40;88.80;;;;;;5116940;28;20143;-51
2023/03/25 04:50:18;;;;;;;;;;;17.40;88.80;;;;;;5115968;28;19916;-53
2023/03/25 04:52:44;;;;;;;;;;;17.40;88.80;;;;;;5116669;28;19914;-51
2023/03/25 04:55:11;;;;;;;;;;;17.40;88.80;;;;;;5116661;28;19912;-47
2023/03/25 04:57:36;;;;;;;;;;;17.40;88.90;;;;;;5114737;28;19916;-48
2023/03/25 05:00:04;;;;;;;;;;;17.40;88.80;;;;;;5115806;28;19908;-51
2023/03/25 05:02:30;;;;;;;;;;;17.40;88.80;;;;;;5112972;28;20310;-51
2023/03/25 05:05:01;;;;;;;;;;;17.40;88.80;;;;;;5116874;28;19954;-48
2023/03/25 05:07:28;;;;;;;;;;;17.30;88.70;;;;;;5116732;28;19908;-50
2023/03/25 05:09:55;;;;;;;;;;;17.30;88.80;;;;;;5116457;28;20044;-51
2023/03/25 05:12:21;;;;;;;;;;;17.30;88.80;;;;;;5115812;28;19961;-54
2023/03/25 05:14:47;;;;;;;;;;;17.30;88.70;;;;;;5116330;28;20432;-51
2023/03/25 05:17:12;;;;;;;;;;;17.30;88.80;;;;;;5113888;28;20278;-49
2023/03/25 05:19:38;;;;;;;;;;;17.30;88.80;;;;;;5114284;28;19922;-50
2023/03/25 05:22:03;;;;;;;;;;;17.30;88.70;;;;;;5116296;28;19930;-51
2023/03/25 05:24:29;;;;;;;;;;;17.30;88.80;;;;;;5116384;28;19969;-49
2023/03/25 05:26:54;;;;;;;;;;;17.30;88.80;;;;;;5116202;28;19915;-52
2023/03/25 05:29:20;;;;;;;;;;;17.30;88.80;;;;;;5115181;28;19912;-48
2023/03/25 05:31:47;;;;;;;;;;;17.30;88.80;;;;;;5115278;28;19922;-51
2023/03/25 05:34:15;;;;;;;;;;;17.30;88.90;;;;;;5115778;28;19957;-52
2023/03/25 05:36:41;;;;;;;;;;;17.30;88.90;;;;;;5115983;28;19911;-48
2023/03/25 05:39:07;;;;;;;;;;;17.30;88.80;;;;;;5114470;28;19912;-54
2023/03/25 05:41:37;;;;;;;;;;;17.30;88.80;;;;;;5115682;28;19962;-53
2023/03/25 05:44:06;;;;;;;;;;;17.30;88.70;;;;;;5115856;28;20362;-50
2023/03/25 05:46:32;;;;;;;;;;;17.30;88.80;;;;;;5115748;28;19907;-51
2023/03/25 05:48:59;;;;;;;;;;;17.30;88.80;;;;;;5115706;28;19911;-53
2023/03/25 05:51:27;;;;;;;;;;;17.30;88.80;;;;;;5112251;28;20052;-51
2023/03/25 05:53:53;;;;;;;;;;;17.30;88.50;;;;;;5112768;28;19945;-50
2023/03/25 05:56:19;;;;;;;;;;;17.30;88.70;;;;;;5099162;28;20333;-51
2023/03/25 05:58:45;;;;;;;;;;;17.30;89.10;;;;;;5113595;28;19919;-50
2023/03/25 06:01:17;;;;;;;;;;;17.30;88.70;;;;;;5113902;28;19911;-51
2023/03/25 06:03:43;;;;;;;;;;;17.20;88.60;;;;;;5113883;28;19943;-52
2023/03/25 06:06:12;;;;;;;;;;;17.20;88.70;;;;;;5096756;28;19911;-48
2023/03/25 06:08:41;;;;;;;;;;;17.30;89.00;;;;;;5113500;28;19976;-52
2023/03/25 06:11:08;;;;;;;;;;;17.30;89.20;;;;;;5114501;28;19911;-53
2023/03/25 06:13:36;;;;;;;;;;;17.20;88.70;;;;;;5112845;28;19919;-50
2023/03/25 06:16:04;;;;;;;;;;;17.20;88.90;;;;;;5113626;28;19911;-52
2023/03/25 06:18:30;;;;;;;;;;;17.20;88.70;;;;;;5112644;28;20381;-47
2023/03/25 06:20:56;;;;;;;;;;;17.20;88.70;;;;;;5111420;28;19908;-52
2023/03/25 06:23:26;;;;;;;;;;;17.20;88.90;;;;;;5113157;28;20385;-48
2023/03/25 06:25:53;;;;;;;;;;;17.20;88.90;;;;;;5113673;28;19907;-50
2023/03/25 06:28:18;;;;;;;;;;;17.20;89.10;;;;;;5111904;28;19967;-52
2023/03/25 06:30:44;;;;;;;;;;;17.20;88.70;;;;;;5113876;28;19912;-50
2023/03/25 06:33:10;;;;;;;;;;;17.20;88.80;;;;;;5112047;28;19955;-49
2023/03/25 06:35:35;;;;;;;;;;;17.20;88.90;;;;;;5114019;28;20369;-47
2023/03/25 06:38:01;;;;;;;;;;;17.20;88.90;;;;;;5113609;28;19908;-49
2023/03/25 06:40:26;;;;;;;;;;;17.20;89.30;;;;;;5114249;28;20381;-49
2023/03/25 06:42:52;;;;;;;;;;;17.20;89.00;;;;;;5112629;28;19912;-49
2023/03/25 06:45:17;;;;;;;;;;;17.10;88.90;;;;;;5112677;28;19938;-49
2023/03/25 06:47:43;;;;;;;;;;;17.10;88.90;;;;;;5110893;28;19911;-50
2023/03/25 06:50:08;;;;;;;;;;;17.10;89.00;;;;;;5112570;28;20326;-53
2023/03/25 06:52:34;;;;;;;;;;;17.10;89.20;;;;;;5113872;28;19916;-48
2023/03/25 06:55:00;;;;;;;;;;;17.10;89.00;;;;;;5112684;28;19920;-53
2023/03/25 06:57:25;;;;;;;;;;;17.10;89.00;;;;;;5113305;28;19916;-51
2023/03/25 06:59:51;;;;;;;;;;;17.10;89.00;;;;;;5113051;28;19912;-53
2023/03/25 07:02:16;;;;;;;;;;;17.10;89.00;;;;;;5112587;28;19912;-51
2023/03/25 07:04:42;;;;;;;;;;;17.10;89.20;;;;;;5112570;28;20354;-50
2023/03/25 07:07:07;;;;;;;;;;;17.10;89.10;;;;;;5112454;28;19935;-53
2023/03/25 07:09:33;;;;;;;;;;;17.10;89.00;;;;;;5113293;28;19912;-53
2023/03/25 07:11:59;;;;;;;;;;;17.10;89.10;;;;;;5109588;28;19958;-52
2023/03/25 07:14:24;;;;;;;;;;;17.10;89.20;;;;;;5109906;28;20311;-51
2023/03/25 07:16:50;;;;;;;;;;;17.10;89.20;;;;;;5112923;28;19915;-50
2023/03/25 07:19:15;;;;;;;;;;;17.10;89.20;;;;;;5112352;28;19919;-50
2023/03/25 07:21:41;;;;;;;;;;;17.10;89.30;;;;;;5112038;28;19911;-52
2023/03/25 07:24:06;;;;;;;;;;;17.00;89.20;;;;;;5112834;28;19956;-51
2023/03/25 07:26:32;;;;;;;;;;;17.00;89.20;;;;;;5112355;28;20385;-53
2023/03/25 07:28:57;;;;;;;;;;;17.00;89.30;;;;;;5112053;28;19930;-51
2023/03/25 07:31:23;;;;;;;;;;;17.00;89.30;;;;;;5112065;28;19912;-51
2023/03/25 07:33:50;;;;;;;;;;;17.00;89.30;;;;;;5095484;28;19927;-51
2023/03/25 07:36:16;;;;;;;;;;;17.00;89.30;;;;;;5112828;28;19916;-51
2023/03/25 07:38:42;;;;;;;;;;;17.00;89.40;;;;;;5114244;28;20266;-47
2023/03/25 07:41:09;;;;;;;;;;;17.00;89.30;;;;;;5112754;28;19920;-48
2023/03/25 07:43:34;;;;;;;;;;;17.00;89.40;;;;;;5112457;28;20354;-49
2023/03/25 07:46:00;;;;;;;;;;;17.00;89.40;;;;;;5113515;28;19912;-53
2023/03/25 07:48:26;;;;;;;;;;;17.00;89.40;;;;;;5114247;28;19908;-49
2023/03/25 07:50:52;;;;;;;;;;;17.00;89.40;;;;;;5113933;28;19953;-51
2023/03/25 07:53:18;;;;;;;;;;;17.00;89.40;;;;;;5123775;28;20298;-52
2023/03/25 07:55:44;;;;;;;;;;;17.00;89.40;;;;;;5096734;28;19916;-52
2023/03/25 07:58:10;;;;;;;;;;;17.00;89.40;;;;;;5112988;28;19919;-53
2023/03/25 08:00:35;;;;;;;;;;;17.00;89.40;;;;;;5114060;28;19908;-52
2023/03/25 08:03:01;;;;;;;;;;;17.00;89.40;;;;;;5111872;28;19977;-50
2023/03/25 08:05:26;;;;;;;;;;;17.00;89.40;;;;;;5111789;28;19911;-52
2023/03/25 08:07:52;;;;;;;;;;;17.00;89.40;;;;;;5122098;28;20010;-52
2023/03/25 08:10:18;;;;;;;;;;;17.00;89.50;;;;;;5113180;28;19911;-53
2023/03/25 08:12:44;;;;;;;;;;;17.00;89.50;;;;;;5113698;27;19916;-49
2023/03/25 08:15:13;;;;;;;;;;;17.00;89.50;;;;;;5117365;28;19965;-52
2023/03/25 08:17:38;;;;;;;;;;;17.00;89.50;;;;;;5116395;28;19916;-51
2023/03/25 08:20:04;;;;;;;;;;;17.00;89.50;;;;;;5100528;28;19956;-54
2023/03/25 08:22:31;;;;;;;;;;;17.00;89.60;;;;;;5114155;28;19915;-50
2023/03/25 08:24:56;;;;;;;;;;;16.90;89.60;;;;;;5113987;27;20232;-50
2023/03/25 08:27:22;;;;;;;;;;;16.90;89.60;;;;;;5126264;27;19966;-48
2023/03/25 08:29:53;;;;;;;;;;;16.90;89.60;;;;;;5119359;27;19935;-50
2023/03/25 08:32:19;;;;;;;;;;;16.90;89.70;;;;;;5121218;27;19912;-51
2023/03/25 08:34:45;;;;;;;;;;;16.90;89.70;;;;;;5130330;27;19912;-50
2023/03/25 08:37:10;;;;;;;;;;;16.90;89.70;;;;;;5120581;27;19912;-49
2023/03/25 08:39:38;;;;;;;;;;;16.90;89.70;;;;;;5115913;27;19914;-52
2023/03/25 08:42:07;;;;;;;;;;;16.90;89.80;;;;;;5116003;28;19915;-52
2023/03/25 08:44:33;;;;;;;;;;;16.90;89.80;;;;;;5117084;27;19998;-50
2023/03/25 08:46:59;;;;;;;;;;;16.90;89.90;;;;;;5101046;28;20379;-52
2023/03/25 08:49:24;;;;;;;;;;;16.90;90.00;;;;;;5096750;27;19908;-47
2023/03/25 08:51:50;;;;;;;;;;;16.90;90.10;;;;;;5116000;28;19904;-52
2023/03/25 08:54:15;;;;;;;;;;;16.90;90.10;;;;;;5115900;27;19918;-50
2023/03/25 08:56:41;;;;;;;;;;;16.90;90.10;;;;;;5116802;28;20310;-51
2023/03/25 08:59:06;;;;;;;;;;;16.90;90.10;;;;;;5116452;27;19935;-54
2023/03/25 09:01:32;;;;;;;;;;;16.90;90.10;;;;;;5114589;27;19995;-51
2023/03/25 09:03:57;;;;;;;;;;;16.90;90.20;;;;;;5116155;27;19911;-54
2023/03/25 09:06:23;;;;;;;;;;;16.90;90.20;;;;;;5114320;27;19973;-52
2023/03/25 09:08:48;;;;;;;;;;;16.90;90.10;;;;;;5103384;28;19908;-53
2023/03/25 09:11:15;;;;;;;;;;;16.90;90.10;;;;;;5113129;27;19915;-53
2023/03/25 09:13:40;;;;;;;;;;;16.90;90.10;;;;;;5116133;28;19907;-52
2023/03/25 09:16:07;;;;;;;;;;;16.90;90.10;;;;;;5116338;27;19911;-49
2023/03/25 09:18:34;;;;;;;;;;;16.90;90.10;;;;;;5115857;28;19943;-50
2023/03/25 09:20:59;;;;;;;;;;;16.90;90.10;;;;;;5119662;27;20018;-54
2023/03/25 09:23:25;;;;;;;;;;;16.90;90.10;;;;;;5114531;27;19965;-52
2023/03/25 09:25:51;;;;;;;;;;;16.90;90.00;;;;;;5114561;28;20265;-50
2023/03/25 09:28:16;;;;;;;;;;;16.90;90.00;;;;;;5097132;28;19904;-53
2023/03/25 09:30:42;;;;;;;;;;;16.90;90.00;;;;;;5099024;27;19928;-52
2023/03/25 09:33:07;;;;;;;;;;;16.90;90.00;;;;;;5115226;27;19908;-53
2023/03/25 09:35:33;;;;;;;;;;;16.90;90.00;;;;;;5113909;28;19923;-54
2023/03/25 09:37:58;;;;;;;;;;;16.80;90.00;;;;;;5114469;28;19923;-54
2023/03/25 09:40:24;;;;;;;;;;;16.90;90.00;;;;;;5115880;27;20003;-55
2023/03/25 09:43:08;;;;;;;;;;;16.80;90.00;;;;;;5083633;28;19916;-52
2023/03/25 09:45:34;;;;;;;;;;;16.80;90.00;;;;;;5097630;27;19926;-52
2023/03/25 09:48:00;;;;;;;;;;;16.80;90.00;;;;;;5114441;28;19920;-50
2023/03/25 09:50:27;;;;;;;;;;;16.80;90.00;;;;;;5115931;28;19904;-51
2023/03/25 09:52:55;;;;;;;;;;;16.90;90.00;;;;;;5114250;27;19907;-51
2023/03/25 09:55:24;;;;;;;;;;;16.80;89.90;;;;;;5115452;28;20007;-52
2023/03/25 09:57:53;;;;;;;;;;;16.90;90.00;;;;;;5112930;27;20279;-53
2023/03/25 10:00:22;;;;;;;;;;;16.80;89.90;;;;;;5113540;27;20261;-53
2023/03/25 10:03:08;;;;;;;;;;;16.80;89.80;;;;;;5118426;27;19958;-50
2023/03/25 10:05:45;;;;;;;;;;;16.90;90.00;;;;;;5117827;27;20298;-53
2023/03/25 10:08:15;;;;;;;;;;;16.90;90.10;;;;;;5122241;27;19919;-50
2023/03/25 10:10:47;;;;;;;;;;;16.90;90.50;;;;;;5115287;28;19909;-52
2023/03/25 10:13:17;;;;;;;;;;;16.90;90.60;;;;;;5114431;27;19908;-51
2023/03/25 10:16:07;;;;;;;;;;;16.90;90.50;;;;;;5113334;27;19927;-50
2023/03/25 10:18:49;;;;;;;;;;;16.90;90.50;;;;;;5101554;28;20250;-53
2023/03/25 10:21:20;;;;;;;;;;;16.90;90.50;;;;;;5110185;28;19998;-52
2023/03/25 10:24:04;;;;;;;;;;;16.90;90.60;;;;;;5111751;28;19955;-48
2023/03/25 10:26:39;;;;;;;;;;;16.90;90.80;;;;;;5116601;27;19915;-54
2023/03/25 10:29:11;;;;;;;;;;;16.90;89.90;;;;;;5114676;28;19908;-56
2023/03/25 10:31:39;;;;;;;;;;;16.90;88.70;;;;;;5113626;28;20007;-54
2023/03/25 10:34:06;;;;;;;;;;;16.90;88.10;;;;;;5088827;27;20408;-50
2023/03/25 10:36:33;;;;;;;;;;;16.90;89.10;;;;;;5113264;27;20003;-50
2023/03/25 10:39:00;;;;;;;;;;;16.90;89.70;;;;;;5112910;28;19916;-54
2023/03/25 10:41:30;;;;;;;;;;;16.90;90.00;;;;;;5113902;28;19919;-51
2023/03/25 10:43:55;;;;;;;;;;;16.90;89.90;;;;;;5113454;27;19943;-54
2023/03/25 10:46:37;;;;;;;;;;;16.90;90.00;;;;;;5113144;27;19977;-51
2023/03/25 10:49:02;;;;;;;;;;;16.90;90.10;;;;;;5112671;27;19916;-53
2023/03/25 10:51:30;;;;;;;;;;;16.90;90.10;;;;;;5102753;28;20023;-52
2023/03/25 10:53:56;;;;;;;;;;;16.80;90.10;;;;;;5113433;28;20370;-54
2023/03/25 10:56:26;;;;;;;;;;;16.80;90.10;;;;;;5112417;28;19920;-52
2023/03/25 10:58:55;;;;;;;;;;;16.80;90.10;;;;;;5114164;28;19926;-54
2023/03/25 11:01:30;;;;;;;;;;;16.90;90.20;;;;;;5096197;28;20258;-49
2023/03/25 11:03:56;;;;;;;;;;;16.90;90.20;;;;;;5114380;28;19947;-49
2023/03/25 11:06:28;;;;;;;;;;;16.90;90.20;;;;;;5113508;28;20002;-52
2023/03/25 11:09:09;;;;;;;;;;;16.80;90.20;;;;;;5094039;28;19909;-51
2023/03/25 11:11:34;;;;;;;;;;;16.80;90.20;;;;;;5094376;28;20343;-53
2023/03/25 11:14:01;;;;;;;;;;;16.90;90.20;;;;;;5093643;28;19919;-49
2023/03/25 11:16:40;;;;;;;;;;;16.90;90.20;;;;;;5093645;28;20430;-53
2023/03/25 11:19:12;;;;;;;;;;;16.90;90.20;;;;;;5105701;28;20192;-50
2023/03/25 11:21:38;;;;;;;;;;;16.90;90.20;;;;;;5113994;28;19908;-52
2023/03/25 11:24:04;;;;;;;;;;;16.90;90.20;;;;;;5107153;28;19911;-54
2023/03/25 11:26:37;;;;;;;;;;;16.90;90.20;;;;;;5094391;28;20347;-50
2023/03/25 11:29:08;;;;;;;;;;;16.90;90.30;;;;;;5093848;28;19908;-50
2023/03/25 11:31:35;;;;;;;;;;;16.90;90.30;;;;;;5093896;28;19908;-52
2023/03/25 11:34:04;;;;;;;;;;;16.90;90.20;;;;;;5093764;28;19916;-49
2023/03/25 11:36:31;;;;;;;;;;;17.00;90.10;;;;;;5093852;28;19912;-52
2023/03/25 11:39:23;;;;;;;;;;;17.10;90.00;;;;;;5075638;28;19916;-49
2023/03/25 11:41:49;;;;;;;;;;;17.30;89.70;;;;;;5103006;28;19924;-52
2023/03/25 11:44:24;;;;;;;;;;;17.50;89.40;;;;;;5096040;28;19943;-53
2023/03/25 11:46:51;;;;;;;;;;;17.70;89.20;;;;;;5096483;28;19908;-51
2023/03/25 11:49:19;;;;;;;;;;;17.90;88.50;;;;;;5117958;28;20342;-50
2023/03/25 11:51:45;;;;;;;;;;;18.20;87.80;;;;;;5118041;28;19939;-49
2023/03/25 11:54:13;;;;;;;;;;;18.40;87.10;;;;;;5117484;28;19912;-51
2023/03/25 11:56:40;;;;;;;;;;;18.60;86.40;;;;;;5099864;28;20306;-53
2023/03/25 11:59:16;;;;;;;;;;;18.80;85.80;;;;;;5116431;28;19960;-50
2023/03/25 12:01:45;;;;;;;;;;;19.00;85.20;;;;;;5117972;28;19977;-53
2023/03/25 12:04:13;;;;;;;;;;;19.10;84.80;;;;;;5118209;28;19955;-52
2023/03/25 12:06:52;;;;;;;;;;;19.30;84.50;;;;;;5117709;28;19912;-51
2023/03/25 12:09:17;;;;;;;;;;;19.30;84.20;;;;;;5117360;28;19908;-53
2023/03/25 12:11:53;;;;;;;;;;;19.40;84.10;;;;;;5117835;28;19908;-50
2023/03/25 12:14:22;;;;;;;;;;;19.40;83.90;;;;;;5116771;28;19916;-51
2023/03/25 12:16:47;;;;;;;;;;;19.40;83.90;;;;;;5117191;28;19912;-50
2023/03/25 12:19:13;;;;;;;;;;;19.40;83.80;;;;;;5117197;28;19919;-51
2023/03/25 12:22:00;;;;;;;;;;;19.30;83.90;;;;;;5117430;28;19912;-50
2023/03/25 12:24:31;;;;;;;;;;;19.30;84.00;;;;;;5117379;28;20048;-50
2023/03/25 12:27:13;;;;;;;;;;;19.20;84.20;;;;;;5117014;28;20006;-53
2023/03/25 12:29:42;;;;;;;;;;;19.10;84.30;;;;;;5099139;28;19958;-51
2023/03/25 12:32:16;;;;;;;;;;;19.10;84.30;;;;;;5116130;28;19915;-49
2023/03/25 12:35:00;;;;;;;;;;;19.00;84.40;;;;;;5117028;28;19911;-51
2023/03/25 12:37:28;;;;;;;;;;;19.00;84.50;;;;;;5116877;28;20322;-50
2023/03/25 12:40:06;;;;;;;;;;;19.00;84.50;;;;;;5112227;27;20322;-51
2023/03/25 12:42:34;;;;;;;;;;;19.00;84.40;;;;;;5113651;27;20270;-54
2023/03/25 12:45:12;;;;;;;;;;;19.10;84.40;;;;;;5121513;27;19930;-53
2023/03/25 12:47:46;;;;;;;;;;;19.10;84.10;;;;;;5119967;27;19911;-52
2023/03/25 12:50:31;;;;;;;;;;;19.30;83.80;;;;;;5114469;27;19912;-50
2023/03/25 12:52:59;;;;;;;;;;;19.40;83.40;;;;;;5115818;27;19947;-53
2023/03/25 12:55:31;;;;;;;;;;;19.60;83.00;;;;;;5116106;28;19916;-52
2023/03/25 12:58:08;;;;;;;;;;;19.60;82.70;;;;;;5116198;27;20346;-52
2023/03/25 13:00:37;;;;;;;;;;;19.80;82.50;;;;;;5113146;27;19914;-47
2023/03/25 13:03:21;;;;;;;;;;;19.80;82.20;;;;;;5114351;27;20370;-52
2023/03/25 13:06:03;;;;;;;;;;;19.90;82.10;;;;;;5114216;27;19955;-52
2023/03/25 13:08:34;;;;;;;;;;;19.90;82.10;;;;;;5115761;28;19915;-50
2023/03/25 13:11:20;;;;;;;;;;;19.90;82.20;;;;;;5118406;27;19912;-51
2023/03/25 13:13:47;;;;;;;;;;;19.90;82.30;;;;;;5103226;28;19923;-53
2023/03/25 13:16:16;;;;;;;;;;;19.80;82.40;;;;;;5116027;28;19912;-55
2023/03/25 13:18:48;;;;;;;;;;;19.70;82.80;;;;;;5116149;28;19914;-52
2023/03/25 13:21:29;;;;;;;;;;;19.60;83.00;;;;;;5108707;28;19960;-52
2023/03/25 13:24:00;;;;;;;;;;;19.60;83.20;;;;;;5115257;28;19950;-49
2023/03/25 13:39:21;;;;;;;;;;;19.40;83.80;;;;;;5114534;28;19920;-50
2023/03/25 13:41:56;;;;;;;;;;;19.50;83.60;;;;;;5115069;28;19923;-51
2023/03/25 13:44:31;;;;;;;;;;;19.60;83.50;;;;;;5121409;27;19973;-52
2023/03/25 13:47:00;;;;;;;;;;;19.60;83.20;;;;;;5136773;27;19994;-53
2023/03/25 13:49:43;;;;;;;;;;;19.70;83.30;;;;;;5115678;27;19911;-51
2023/03/25 13:52:08;;;;;;;;;;;19.70;82.80;;;;;;5118133;27;20036;-52
2023/03/25 13:54:34;;;;;;;;;;;19.80;83.10;;;;;;5128762;27;20295;-55
2023/03/25 13:57:02;;;;;;;;;;;19.80;83.10;;;;;;5109548;28;19978;-56
2023/03/25 13:59:46;;;;;;;;;;;19.80;83.30;;;;;;5094814;28;19927;-55
2023/03/25 14:02:23;;;;;;;;;;;19.80;83.40;;;;;;5095214;28;19916;-54
2023/03/25 14:05:05;;;;;;;;;;;19.70;83.30;;;;;;5105550;28;19916;-54
2023/03/25 14:07:45;;;;;;;;;;;19.70;83.60;;;;;;5115236;28;19911;-51
2023/03/25 14:10:20;;;;;;;;;;;19.70;83.30;;;;;;5128600;27;20417;-55
2023/03/25 14:12:57;;;;;;;;;;;19.60;83.50;;;;;;5135711;27;19964;-53
2023/03/25 14:15:34;;;;;;;;;;;19.60;83.50;;;;;;5099211;27;19973;-53
2023/03/25 14:18:01;;;;;;;;;;;19.50;83.60;;;;;;5099604;27;20057;-54
2023/03/25 14:20:34;;;;;;;;;;;19.50;83.60;;;;;;5135802;27;19990;-53
2023/03/25 14:23:06;;;;;;;;;;;19.50;83.60;;;;;;5117255;27;19926;-55
2023/03/25 14:25:38;;;;;;;;;;;19.50;83.50;;;;;;5135588;27;19907;-52
2023/03/25 14:28:05;;;;;;;;;;;19.60;83.30;;;;;;5117322;27;19915;-50
2023/03/25 14:30:31;;;;;;;;;;;19.70;83.60;;;;;;5131572;27;20357;-53
2023/03/25 14:32:57;;;;;;;;;;;19.70;82.90;;;;;;5114524;28;19911;-53
2023/03/25 14:35:32;;;;;;;;;;;19.80;82.80;;;;;;5096396;28;19965;-55
2023/03/25 14:38:07;;;;;;;;;;;19.80;82.70;;;;;;5114821;28;19912;-54
2023/03/25 14:40:38;;;;;;;;;;;19.70;82.60;;;;;;5114625;28;19926;-55